Time;durP1;ratioP1;P1;durP2;ratioP2;P2;SDS_P1;SDS_P2;PMS_P1;PMS_P2;Temp;Humidity;BMP_temperature;BMP_pressure;BME280_temperature;BME280_humidity;BME280_pressure;Samples;Min_cycle;Max_cycle;Signal;HPM_P1;HPM_P2
2021/12/15 00:00:56;;;;;;;1.07;0.97;;;7.70;99.90;;;;;;4871324;29;20184;-84
2021/12/15 00:03:22;;;;;;;0.80;0.80;;;7.50;99.90;;;;;;4871666;29;20203;-83
2021/12/15 00:05:49;;;;;;;1.03;0.80;;;7.60;99.90;;;;;;4871081;29;20696;-84
2021/12/15 00:08:15;;;;;;;1.13;1.03;;;7.70;99.90;;;;;;4870743;29;20194;-84
2021/12/15 00:10:43;;;;;;;0.50;0.50;;;7.40;99.90;;;;;;4871696;29;20204;-84
2021/12/15 00:13:12;;;;;;;0.30;0.30;;;7.20;99.90;;;;;;4872522;29;20176;-84
2021/12/15 00:15:38;;;;;;;1.77;1.67;;;7.10;99.90;;;;;;4871257;29;20190;-84
2021/12/15 00:18:05;;;;;;;0.80;0.80;;;7.00;99.90;;;;;;4871564;29;20297;-84
2021/12/15 00:20:32;;;;;;;0.40;0.40;;;7.10;99.90;;;;;;4873078;29;20719;-84
2021/12/15 00:22:57;;;;;;;0.80;0.67;;;6.90;99.90;;;;;;4870732;29;20180;-83
2021/12/15 00:25:26;;;;;;;1.77;1.10;;;6.80;99.90;;;;;;4871805;29;20200;-84
2021/12/15 00:27:52;;;;;;;1.40;1.23;;;6.90;99.90;;;;;;4872244;29;20199;-83
2021/12/15 00:30:19;;;;;;;1.47;1.37;;;6.80;99.90;;;;;;4870848;29;20564;-83
2021/12/15 00:32:45;;;;;;;0.27;0.27;;;6.60;99.90;;;;;;4870122;29;20196;-84
2021/12/15 00:35:11;;;;;;;1.80;0.57;;;6.60;99.90;;;;;;4871349;29;20733;-83
2021/12/15 00:37:36;;;;;;;0.70;0.70;;;6.80;99.90;;;;;;4869316;29;20215;-84
2021/12/15 00:40:06;;;;;;;0.97;0.73;;;6.90;99.90;;;;;;4870496;29;20252;-84
2021/12/15 00:42:32;;;;;;;0.90;0.80;;;6.90;99.90;;;;;;4870173;29;20195;-84
2021/12/15 00:44:57;;;;;;;0.77;0.77;;;6.90;99.90;;;;;;4870733;29;20559;-83
2021/12/15 00:47:23;;;;;;;0.73;0.73;;;7.00;99.90;;;;;;4869850;29;20248;-84
2021/12/15 00:49:51;;;;;;;0.80;0.80;;;7.10;99.90;;;;;;4871018;29;20212;-84
2021/12/15 00:52:16;;;;;;;0.83;0.80;;;7.30;99.90;;;;;;4872483;29;20188;-84
2021/12/15 00:54:42;;;;;;;2.03;1.10;;;7.40;99.90;;;;;;4871148;29;21199;-85
2021/12/15 00:57:08;;;;;;;0.90;0.50;;;7.50;99.90;;;;;;4870095;29;20191;-83
2021/12/15 00:59:34;;;;;;;0.90;0.80;;;7.60;99.90;;;;;;4870175;29;20228;-84
2021/12/15 01:02:01;;;;;;;0.97;0.90;;;7.70;99.90;;;;;;4870486;29;20289;-84
2021/12/15 01:04:29;;;;;;;0.57;0.57;;;7.50;99.90;;;;;;4870001;29;20229;-83
2021/12/15 01:06:57;;;;;;;0.33;0.33;;;7.60;99.90;;;;;;4870153;29;20606;-84
2021/12/15 01:09:30;;;;;;;0.63;0.63;;;7.70;99.90;;;;;;4870503;29;20645;-84
2021/12/15 01:22:23;;;;;;;0.83;0.83;;;7.50;99.90;;;;;;4875988;29;20200;-84
2021/12/15 01:24:50;;;;;;;1.80;0.87;;;7.70;99.90;;;;;;4873245;29;20199;-83
2021/12/15 01:27:16;;;;;;;3.03;0.47;;;7.80;99.90;;;;;;4873056;29;20222;-84
2021/12/15 01:29:41;;;;;;;0.47;0.47;;;7.80;99.90;;;;;;4875355;29;20223;-84
2021/12/15 01:32:07;;;;;;;1.00;0.60;;;7.90;99.90;;;;;;4873852;29;20184;-84
2021/12/15 01:34:33;;;;;;;0.50;0.40;;;7.90;99.90;;;;;;4874245;29;20184;-83
2021/12/15 01:36:59;;;;;;;1.50;1.40;;;8.00;99.90;;;;;;4874157;29;20199;-85
2021/12/15 01:39:25;;;;;;;0.40;0.40;;;8.10;99.90;;;;;;4875033;29;20228;-84
2021/12/15 01:41:55;;;;;;;3.07;1.03;;;8.10;99.90;;;;;;4873839;29;20191;-83
2021/12/15 01:46:58;;;;;;;0.60;0.60;;;8.10;99.90;;;;;;4875157;29;20567;-84
2021/12/15 01:49:29;;;;;;;0.33;0.33;;;7.80;99.90;;;;;;4873677;29;20231;-84
2021/12/15 01:51:58;;;;;;;1.50;1.37;;;7.50;99.90;;;;;;4872614;29;20196;-84
2021/12/15 01:54:26;;;;;;;2.67;0.97;;;7.40;99.90;;;;;;4873008;29;20990;-84
2021/12/15 01:56:52;;;;;;;0.93;0.80;;;7.20;99.90;;;;;;4872666;29;20211;-84
2021/12/15 01:59:20;;;;;;;0.87;0.87;;;7.20;99.90;;;;;;4873329;29;20580;-84
2021/12/15 02:01:46;;;;;;;0.80;0.67;;;7.30;99.90;;;;;;4874140;29;20184;-84
2021/12/15 02:04:12;;;;;;;2.63;0.70;;;7.40;99.90;;;;;;4872739;29;20222;-84
2021/12/15 02:06:42;;;;;;;1.97;1.50;;;7.50;99.90;;;;;;4872407;29;20238;-84
2021/12/15 02:09:08;;;;;;;1.33;1.30;;;7.60;99.90;;;;;;4871338;29;20585;-84
2021/12/15 02:11:34;;;;;;;0.67;0.57;;;7.70;99.90;;;;;;4873064;29;20196;-84
2021/12/15 02:14:00;;;;;;;0.50;0.50;;;7.80;99.90;;;;;;4872830;29;20214;-83
2021/12/15 02:16:25;;;;;;;0.80;0.73;;;7.90;99.90;;;;;;4874665;29;20795;-84
2021/12/15 02:18:51;;;;;;;1.43;0.87;;;7.80;99.90;;;;;;4871134;29;20243;-84
2021/12/15 02:21:19;;;;;;;1.83;1.57;;;7.40;99.90;;;;;;4873186;29;20282;-83
2021/12/15 02:23:53;;;;;;;2.60;0.93;;;7.20;99.90;;;;;;4873425;29;20553;-84
2021/12/15 02:26:26;;;;;;;0.70;0.70;;;7.30;99.90;;;;;;4873789;29;20181;-84
2021/12/15 02:28:56;;;;;;;0.30;0.30;;;7.20;99.90;;;;;;4871820;29;21023;-84
2021/12/15 02:31:40;;;;;;;1.17;0.50;;;7.10;99.90;;;;;;4879100;29;20192;-83
2021/12/15 02:34:32;;;;;;;0.30;0.30;;;7.20;99.90;;;;;;4873640;29;20219;-83
2021/12/15 02:39:41;;;;;;;0.30;0.30;;;7.20;99.90;;;;;;4873869;29;20761;-84
2021/12/15 02:42:07;;;;;;;0.57;0.53;;;7.40;99.90;;;;;;4872687;29;20303;-83
2021/12/15 02:44:34;;;;;;;0.50;0.50;;;7.50;99.90;;;;;;4872894;29;20997;-84
2021/12/15 02:47:00;;;;;;;0.63;0.63;;;7.50;99.90;;;;;;4871921;29;20614;-84
2021/12/15 02:49:28;;;;;;;0.87;0.57;;;7.60;99.90;;;;;;4872793;29;20310;-84
2021/12/15 02:51:56;;;;;;;2.40;0.67;;;7.70;99.90;;;;;;4873074;29;20767;-84
2021/12/15 02:54:24;;;;;;;0.70;0.70;;;7.80;99.90;;;;;;4873475;29;21039;-82
2021/12/15 02:56:52;;;;;;;0.57;0.57;;;7.90;99.90;;;;;;4871736;29;20190;-84
2021/12/15 02:59:25;;;;;;;1.97;0.83;;;7.90;99.90;;;;;;4872718;29;20255;-83
2021/12/15 03:02:02;;;;;;;0.30;0.30;;;8.00;99.90;;;;;;4872229;29;21245;-84
2021/12/15 03:04:39;;;;;;;0.57;0.57;;;8.00;99.90;;;;;;4872560;29;20216;-83
2021/12/15 03:07:23;;;;;;;1.00;0.90;;;7.90;99.90;;;;;;4872086;29;20229;-83
2021/12/15 03:17:43;;;;;;;1.63;0.97;;;7.10;99.90;;;;;;4872834;29;20188;-83
2021/12/15 03:20:11;;;;;;;1.30;1.20;;;6.90;99.90;;;;;;4873312;29;20231;-84
2021/12/15 03:22:37;;;;;;;0.67;0.67;;;6.60;99.90;;;;;;4872570;29;20182;-84
2021/12/15 03:25:05;;;;;;;2.00;1.40;;;6.60;99.90;;;;;;4872249;29;20178;-84
2021/12/15 03:36:03;;;;;;;0.67;0.67;;;6.80;99.90;;;;;;4873450;29;20244;-83
2021/12/15 03:38:30;;;;;;;1.43;1.13;;;6.60;99.90;;;;;;4871659;29;20270;-83
2021/12/15 03:40:56;;;;;;;1.40;1.23;;;6.60;99.90;;;;;;4872101;29;20198;-84
2021/12/15 03:43:22;;;;;;;0.73;0.73;;;6.50;99.90;;;;;;4871404;29;20595;-84
2021/12/15 03:45:55;;;;;;;0.57;0.50;;;6.50;99.90;;;;;;4872924;29;20192;-83
2021/12/15 03:48:28;;;;;;;0.77;0.77;;;6.70;99.90;;;;;;4871355;29;20215;-84
2021/12/15 03:50:56;;;;;;;0.60;0.60;;;6.90;99.90;;;;;;4871251;29;21059;-82
2021/12/15 03:53:23;;;;;;;1.60;1.50;;;7.00;99.90;;;;;;4871707;29;20188;-83
2021/12/15 03:55:50;;;;;;;0.57;0.57;;;7.00;99.90;;;;;;4870454;29;20192;-84
2021/12/15 03:58:19;;;;;;;1.63;1.07;;;7.00;99.90;;;;;;4870632;29;20211;-83
2021/12/15 04:01:00;;;;;;;0.70;0.70;;;6.80;99.90;;;;;;4872387;29;20176;-83
2021/12/15 04:03:32;;;;;;;1.07;1.07;;;6.80;99.90;;;;;;4872090;29;20878;-83
2021/12/15 04:06:02;;;;;;;1.57;0.53;;;6.60;99.90;;;;;;4871235;29;20228;-83
2021/12/15 04:08:28;;;;;;;1.03;0.77;;;6.60;99.90;;;;;;4869687;29;20212;-83
2021/12/15 04:10:55;;;;;;;1.37;0.70;;;6.80;99.90;;;;;;4871972;29;20298;-84
2021/12/15 04:13:21;;;;;;;0.73;0.73;;;6.70;99.90;;;;;;4869417;29;20199;-83
2021/12/15 04:15:53;;;;;;;2.30;1.03;;;6.80;99.90;;;;;;4864287;29;20203;-84
2021/12/15 04:18:20;;;;;;;2.13;0.70;;;6.90;99.90;;;;;;4868957;29;20575;-83
2021/12/15 04:20:46;;;;;;;0.50;0.50;;;6.90;99.90;;;;;;4871737;29;20187;-84
2021/12/15 04:23:19;;;;;;;3.40;1.00;;;6.90;99.90;;;;;;4870331;29;20202;-83
2021/12/15 04:25:46;;;;;;;1.23;1.10;;;7.10;99.90;;;;;;4871162;29;21051;-84
2021/12/15 04:28:16;;;;;;;1.07;0.90;;;7.30;99.90;;;;;;4870536;29;20204;-83
2021/12/15 04:30:48;;;;;;;0.63;0.63;;;7.10;99.90;;;;;;4870877;29;20191;-83
2021/12/15 04:33:30;;;;;;;1.73;0.93;;;7.10;99.90;;;;;;4870427;29;20188;-84
2021/12/15 04:36:01;;;;;;;0.87;0.57;;;7.20;99.90;;;;;;4871860;29;20209;-83
2021/12/15 04:38:29;;;;;;;0.27;0.27;;;7.30;99.90;;;;;;4871300;29;20249;-84
2021/12/15 04:40:56;;;;;;;1.47;0.47;;;7.40;99.90;;;;;;4871370;29;20299;-84
2021/12/15 04:43:23;;;;;;;2.97;0.73;;;7.50;99.90;;;;;;4872086;29;20199;-84
2021/12/15 04:45:48;;;;;;;0.67;0.67;;;7.50;99.90;;;;;;4870962;29;20686;-83
2021/12/15 04:48:15;;;;;;;0.50;0.50;;;7.60;99.90;;;;;;4871119;29;20200;-84
2021/12/15 04:50:41;;;;;;;0.50;0.50;;;7.60;99.90;;;;;;4871895;29;20247;-83
2021/12/15 04:53:07;;;;;;;0.53;0.53;;;7.70;99.90;;;;;;4869240;29;20194;-84
2021/12/15 04:55:35;;;;;;;0.93;0.93;;;7.70;99.90;;;;;;4869203;29;20188;-83
2021/12/15 04:58:04;;;;;;;0.40;0.40;;;7.80;99.90;;;;;;4868850;29;20192;-84
2021/12/15 05:00:34;;;;;;;1.00;1.00;;;7.70;99.90;;;;;;4870578;29;20188;-83
2021/12/15 05:03:00;;;;;;;0.97;0.83;;;7.60;99.90;;;;;;4870116;29;20191;-84
2021/12/15 05:05:29;;;;;;;0.67;0.67;;;7.50;99.90;;;;;;4870478;29;20184;-84
2021/12/15 05:07:55;;;;;;;0.77;0.77;;;7.30;99.90;;;;;;4871058;29;20182;-84
2021/12/15 05:10:21;;;;;;;0.80;0.70;;;7.00;99.90;;;;;;4870548;29;20223;-83
2021/12/15 05:12:47;;;;;;;0.23;0.23;;;7.10;99.90;;;;;;4863610;29;20192;-84
2021/12/15 05:15:13;;;;;;;1.20;0.80;;;7.10;99.90;;;;;;4870933;29;20199;-83
2021/12/15 05:17:39;;;;;;;1.00;0.73;;;7.00;99.90;;;;;;4870540;29;20251;-84
2021/12/15 05:20:08;;;;;;;1.20;1.10;;;7.20;99.90;;;;;;4870050;29;20342;-84
2021/12/15 05:22:34;;;;;;;0.77;0.77;;;7.40;99.90;;;;;;4870240;29;20216;-83
2021/12/15 05:25:04;;;;;;;0.67;0.67;;;7.10;99.90;;;;;;4869948;29;20184;-84
2021/12/15 05:27:29;;;;;;;1.23;0.87;;;6.90;99.90;;;;;;4868913;29;20201;-84
2021/12/15 05:29:57;;;;;;;0.87;0.80;;;6.80;99.90;;;;;;4869174;29;20218;-83
2021/12/15 05:32:23;;;;;;;1.10;0.83;;;6.60;99.90;;;;;;4870185;29;20204;-83
2021/12/15 05:34:52;;;;;;;0.50;0.50;;;6.60;99.90;;;;;;4867248;29;20196;-83
2021/12/15 05:37:21;;;;;;;0.93;0.90;;;6.50;99.90;;;;;;4868858;29;20196;-84
2021/12/15 05:39:48;;;;;;;1.10;0.50;;;6.70;99.90;;;;;;4869285;29;20232;-84
2021/12/15 05:42:13;;;;;;;1.43;0.93;;;6.80;99.90;;;;;;4870314;29;20184;-83
2021/12/15 05:44:39;;;;;;;0.70;0.70;;;6.90;99.90;;;;;;4868041;29;20432;-84
2021/12/15 05:47:06;;;;;;;3.37;0.93;;;6.90;99.90;;;;;;4869795;29;20192;-84
2021/12/15 05:49:32;;;;;;;1.70;1.17;;;6.90;99.90;;;;;;4868360;29;20975;-83
2021/12/15 05:51:58;;;;;;;1.57;1.10;;;6.70;99.90;;;;;;4870022;29;20202;-83
2021/12/15 05:54:24;;;;;;;2.97;1.43;;;6.60;99.90;;;;;;4870242;29;20198;-83
2021/12/15 05:56:50;;;;;;;2.30;1.53;;;6.60;99.90;;;;;;4871199;29;20719;-84
2021/12/15 05:59:16;;;;;;;2.17;0.93;;;6.60;99.90;;;;;;4870114;29;20248;-83
2021/12/15 06:01:42;;;;;;;2.33;0.80;;;6.60;99.90;;;;;;4870017;29;20194;-83
2021/12/15 06:04:08;;;;;;;1.53;0.63;;;6.80;99.90;;;;;;4871434;29;20206;-84
2021/12/15 06:06:34;;;;;;;5.70;1.23;;;6.80;99.90;;;;;;4871103;29;20646;-83
2021/12/15 06:09:00;;;;;;;0.90;0.90;;;6.70;99.90;;;;;;4872458;29;20218;-83
2021/12/15 06:11:26;;;;;;;2.17;0.67;;;6.80;99.90;;;;;;4872185;29;20204;-84
2021/12/15 06:13:53;;;;;;;0.20;0.20;;;7.00;99.90;;;;;;4872613;29;20197;-83
2021/12/15 06:16:20;;;;;;;1.33;1.23;;;7.10;99.90;;;;;;4871344;29;20216;-83
2021/12/15 06:18:48;;;;;;;0.30;0.30;;;7.10;99.90;;;;;;4867750;29;20316;-84
2021/12/15 06:21:14;;;;;;;0.30;0.30;;;7.20;99.90;;;;;;4864783;29;20557;-84
2021/12/15 06:23:40;;;;;;;0.67;0.67;;;7.20;99.90;;;;;;4870982;29;20263;-83
2021/12/15 06:26:07;;;;;;;0.83;0.83;;;7.30;99.90;;;;;;4873736;29;20232;-85
2021/12/15 06:28:34;;;;;;;3.30;1.47;;;7.40;99.90;;;;;;4873533;29;20222;-85
2021/12/15 06:31:02;;;;;;;1.97;1.10;;;7.40;99.90;;;;;;4871826;29;20385;-84
2021/12/15 06:33:29;;;;;;;1.17;1.07;;;7.40;99.90;;;;;;4873488;29;20197;-84
2021/12/15 06:35:58;;;;;;;0.30;0.30;;;7.30;99.90;;;;;;4871629;29;20203;-85
2021/12/15 06:38:30;;;;;;;0.63;0.40;;;7.40;99.90;;;;;;4872339;29;20232;-84
2021/12/15 06:40:57;;;;;;;1.67;1.57;;;7.40;99.90;;;;;;4874041;29;20196;-85
2021/12/15 06:43:23;;;;;;;1.40;1.30;;;7.00;99.90;;;;;;4872485;29;20195;-85
2021/12/15 06:59:13;;;;;;;1.77;1.67;;;7.20;99.90;;;;;;4878446;29;20232;-82
2021/12/15 07:01:39;;;;;;;0.53;0.53;;;7.30;99.90;;;;;;4879869;29;20188;-82
2021/12/15 07:04:04;;;;;;;0.60;0.60;;;7.40;99.90;;;;;;4877765;29;20190;-81
2021/12/15 07:06:30;;;;;;;1.33;1.07;;;7.40;99.90;;;;;;4871276;29;20192;-84
2021/12/15 07:08:55;;;;;;;1.17;0.97;;;7.40;99.90;;;;;;4870776;29;20213;-85
2021/12/15 07:11:22;;;;;;;0.20;0.20;;;7.50;99.90;;;;;;4869572;29;20298;-84
2021/12/15 07:13:48;;;;;;;0.47;0.47;;;7.60;99.90;;;;;;4872843;29;20303;-85
2021/12/15 07:16:14;;;;;;;3.90;2.07;;;7.70;99.90;;;;;;4873934;29;20739;-84
2021/12/15 07:18:53;;;;;;;1.23;1.13;;;7.50;99.90;;;;;;4872241;29;20714;-85
2021/12/15 07:21:23;;;;;;;1.20;1.20;;;7.30;99.90;;;;;;4872594;29;20271;-84
2021/12/15 07:23:52;;;;;;;2.93;1.50;;;7.20;99.90;;;;;;4872439;29;20190;-84
2021/12/15 07:26:19;;;;;;;1.23;0.80;;;7.20;99.90;;;;;;4873180;29;20191;-84
2021/12/15 07:28:45;;;;;;;0.43;0.37;;;7.20;99.90;;;;;;4872028;29;20310;-85
2021/12/15 07:31:13;;;;;;;1.90;1.03;;;7.20;99.90;;;;;;4872410;29;20188;-84
2021/12/15 07:33:38;;;;;;;0.67;0.67;;;7.20;99.90;;;;;;4873061;29;20776;-84
2021/12/15 07:36:05;;;;;;;0.60;0.60;;;7.20;99.90;;;;;;4872222;29;20283;-85
2021/12/15 07:38:31;;;;;;;0.50;0.50;;;7.30;99.90;;;;;;4870859;29;20239;-84
2021/12/15 07:40:57;;;;;;;2.00;1.60;;;7.10;99.90;;;;;;4873006;29;20272;-83
2021/12/15 07:43:24;;;;;;;1.50;1.20;;;7.20;99.90;;;;;;4871744;29;20209;-84
2021/12/15 07:45:54;;;;;;;1.37;1.00;;;7.10;99.90;;;;;;4872982;29;20265;-85
2021/12/15 07:48:22;;;;;;;1.37;1.27;;;6.80;99.90;;;;;;4871676;29;20318;-85
2021/12/15 07:50:52;;;;;;;1.70;0.97;;;6.80;99.90;;;;;;4872216;29;20206;-84
2021/12/15 07:53:19;;;;;;;0.93;0.73;;;7.00;99.90;;;;;;4871109;29;20276;-84
2021/12/15 07:55:46;;;;;;;1.63;1.53;;;7.20;99.90;;;;;;4870699;29;20285;-84
2021/12/15 07:58:12;;;;;;;1.63;1.53;;;7.10;99.90;;;;;;4864158;29;20203;-85
2021/12/15 08:00:41;;;;;;;0.87;0.53;;;7.10;99.90;;;;;;4865862;29;20195;-84
2021/12/15 08:03:07;;;;;;;1.10;1.00;;;7.10;99.90;;;;;;4867194;29;20186;-84
2021/12/15 08:05:35;;;;;;;4.07;1.43;;;7.10;99.90;;;;;;4870854;29;20202;-84
2021/12/15 08:08:00;;;;;;;1.07;0.97;;;7.10;99.90;;;;;;4868751;29;20650;-86
2021/12/15 08:10:26;;;;;;;1.70;1.23;;;7.20;99.90;;;;;;4869760;29;20232;-85
2021/12/15 08:12:53;;;;;;;0.67;0.67;;;7.40;99.90;;;;;;4870030;29;20208;-86
2021/12/15 08:15:19;;;;;;;1.77;1.20;;;7.60;99.90;;;;;;4862887;29;20192;-82
2021/12/15 08:17:50;;;;;;;1.03;0.90;;;7.50;99.90;;;;;;4874494;29;20200;-81
2021/12/15 08:20:16;;;;;;;0.77;0.77;;;7.70;99.90;;;;;;4876709;29;20231;-81
2021/12/15 08:22:42;;;;;;;2.00;1.07;;;7.50;99.90;;;;;;4875036;29;20188;-82
2021/12/15 08:25:10;;;;;;;0.60;0.60;;;7.40;99.90;;;;;;4875490;29;20530;-81
2021/12/15 08:27:36;;;;;;;1.63;1.50;;;7.40;99.90;;;;;;4876122;29;20192;-82
2021/12/15 08:30:05;;;;;;;1.17;1.17;;;7.30;99.90;;;;;;4873524;29;20271;-82
2021/12/15 08:32:31;;;;;;;1.83;1.73;;;7.30;99.90;;;;;;4876845;29;20231;-82
2021/12/15 08:34:57;;;;;;;0.83;0.83;;;7.50;99.90;;;;;;4876384;29;20581;-82
2021/12/15 08:37:23;;;;;;;0.43;0.40;;;7.80;99.90;;;;;;4875309;29;20243;-82
2021/12/15 08:39:48;;;;;;;1.07;0.90;;;7.90;99.90;;;;;;4875301;29;20666;-82
2021/12/15 08:42:14;;;;;;;2.30;0.90;;;8.10;99.90;;;;;;4875523;29;20222;-83
2021/12/15 08:44:40;;;;;;;2.00;1.43;;;8.20;99.90;;;;;;4882460;29;20188;-81
2021/12/15 08:47:07;;;;;;;2.27;0.93;;;8.30;99.90;;;;;;4874782;29;20201;-82
2021/12/15 08:49:33;;;;;;;1.37;1.07;;;8.50;99.90;;;;;;4875429;29;20251;-82
2021/12/15 08:52:00;;;;;;;1.27;1.10;;;8.60;99.90;;;;;;4877344;29;20201;-82
2021/12/15 08:54:25;;;;;;;0.73;0.73;;;8.60;99.90;;;;;;4874637;29;20228;-82
2021/12/15 08:56:52;;;;;;;1.30;1.20;;;8.70;99.90;;;;;;4874379;29;20746;-83
2021/12/15 08:59:18;;;;;;;2.73;1.27;;;8.50;99.90;;;;;;4876343;29;20291;-82
2021/12/15 09:01:45;;;;;;;1.20;1.10;;;7.70;99.90;;;;;;4876231;29;20239;-81
2021/12/15 09:04:11;;;;;;;1.23;1.13;;;7.50;99.90;;;;;;4873729;29;20623;-83
2021/12/15 09:06:39;;;;;;;0.77;0.77;;;7.50;99.90;;;;;;4875589;29;20283;-83
2021/12/15 09:09:06;;;;;;;0.60;0.60;;;7.80;99.90;;;;;;4875805;29;20221;-81
2021/12/15 09:11:32;;;;;;;1.10;0.70;;;7.70;99.90;;;;;;4875597;29;20827;-82
2021/12/15 09:14:00;;;;;;;0.67;0.60;;;7.50;99.90;;;;;;4877204;29;20180;-83
2021/12/15 09:16:27;;;;;;;0.80;0.80;;;7.60;99.90;;;;;;4876946;29;20262;-81
2021/12/15 09:18:55;;;;;;;1.13;0.93;;;7.60;99.90;;;;;;4874923;29;20225;-83
2021/12/15 09:21:27;;;;;;;0.77;0.77;;;7.80;99.90;;;;;;4873628;29;20192;-82
2021/12/15 09:23:53;;;;;;;1.50;0.87;;;7.90;99.90;;;;;;4874730;29;20264;-82
2021/12/15 09:26:20;;;;;;;1.10;0.70;;;7.90;99.90;;;;;;4875211;29;20209;-83
2021/12/15 09:28:47;;;;;;;0.87;0.87;;;8.00;99.90;;;;;;4874626;29;20245;-83
2021/12/15 09:31:15;;;;;;;1.30;0.50;;;8.30;99.90;;;;;;4877224;29;20307;-82
2021/12/15 09:33:42;;;;;;;0.73;0.73;;;8.50;99.90;;;;;;4871134;29;20195;-81
2021/12/15 09:36:09;;;;;;;1.10;1.00;;;8.50;99.90;;;;;;4872592;29;20658;-82
2021/12/15 09:38:36;;;;;;;1.13;0.73;;;8.50;99.90;;;;;;4871992;29;20890;-82
2021/12/15 09:41:03;;;;;;;1.87;1.27;;;8.80;99.90;;;;;;4878240;29;20225;-82
2021/12/15 09:43:31;;;;;;;1.80;0.90;;;8.80;99.90;;;;;;4877020;29;20196;-81
2021/12/15 09:46:38;;;;;;;0.87;0.87;;;9.00;99.90;;;;;;4876833;29;20296;-82
2021/12/15 10:03:02;;;;;;;0.70;0.70;;;8.80;99.90;;;;;;4865467;29;20215;-84
2021/12/15 10:05:40;;;;;;;1.23;0.97;;;9.10;99.90;;;;;;4873701;29;20675;-84
2021/12/15 10:19:53;;;;;;;1.17;0.73;;;9.30;99.90;;;;;;4877219;29;20240;-84
2021/12/15 10:22:48;;;;;;;1.17;0.97;;;9.50;99.90;;;;;;4869073;29;20188;-84
2021/12/15 10:25:17;;;;;;;1.27;1.00;;;9.60;99.90;;;;;;4874526;29;20234;-84
2021/12/15 10:27:50;;;;;;;1.07;1.00;;;9.40;99.90;;;;;;4874405;29;20190;-84
2021/12/15 10:30:33;;;;;;;0.93;0.93;;;9.00;99.90;;;;;;4873614;29;20217;-84
2021/12/15 10:33:10;;;;;;;0.83;0.33;;;9.00;99.90;;;;;;4873394;29;20271;-84
2021/12/15 10:36:01;;;;;;;0.50;0.50;;;9.10;99.90;;;;;;4873377;29;20192;-84
2021/12/15 10:38:30;;;;;;;1.27;0.83;;;9.00;99.90;;;;;;4866379;29;20226;-84
2021/12/15 10:41:24;;;;;;;1.90;0.93;;;8.90;99.90;;;;;;4873548;29;20202;-83
2021/12/15 10:44:03;;;;;;;0.93;0.70;;;9.10;99.90;;;;;;4871662;29;20203;-84
2021/12/15 10:46:40;;;;;;;3.37;0.87;;;9.00;99.90;;;;;;4873535;29;20590;-84
2021/12/15 10:49:13;;;;;;;4.90;1.03;;;9.20;99.90;;;;;;4872953;29;20586;-84
2021/12/15 10:51:53;;;;;;;2.87;1.20;;;9.40;99.90;;;;;;4864807;29;20215;-84
2021/12/15 10:54:23;;;;;;;1.30;1.17;;;9.20;99.90;;;;;;4873120;29;20243;-84
2021/12/15 10:56:54;;;;;;;0.50;0.50;;;9.20;99.90;;;;;;4887505;29;21150;-84
2021/12/15 10:59:21;;;;;;;0.77;0.70;;;9.20;99.90;;;;;;4871732;29;20244;-84
2021/12/15 11:01:52;;;;;;;0.70;0.70;;;9.60;99.90;;;;;;4873407;29;20667;-83
2021/12/15 11:04:46;;;;;;;0.70;0.33;;;9.80;99.90;;;;;;4875939;29;20197;-84
2021/12/15 11:07:17;;;;;;;0.70;0.70;;;10.00;99.90;;;;;;4867943;29;20225;-84
2021/12/15 11:10:01;;;;;;;1.10;1.03;;;10.00;99.90;;;;;;4874586;29;20315;-83
2021/12/15 11:12:38;;;;;;;1.30;1.00;;;10.20;99.90;;;;;;4871979;29;20582;-83
2021/12/15 11:15:10;;;;;;;1.33;1.23;;;10.40;99.90;;;;;;4872638;29;20186;-84
2021/12/15 11:17:48;;;;;;;1.53;0.57;;;10.60;99.90;;;;;;4871554;29;21211;-85
2021/12/15 11:20:28;;;;;;;1.43;1.20;;;10.60;99.90;;;;;;4872428;29;20223;-84
2021/12/15 11:23:03;;;;;;;0.93;0.93;;;10.70;99.90;;;;;;4872322;29;20196;-84
2021/12/15 11:25:53;;;;;;;2.97;1.23;;;10.60;99.90;;;;;;4870816;29;20210;-84
2021/12/15 11:28:24;;;;;;;0.63;0.63;;;10.60;99.90;;;;;;4872415;29;20187;-84
2021/12/15 11:31:01;;;;;;;1.50;1.00;;;10.60;99.90;;;;;;4871859;29;20190;-84
2021/12/15 11:33:41;;;;;;;2.17;1.00;;;10.60;99.90;;;;;;4872010;29;20607;-84
2021/12/15 11:36:31;;;;;;;2.83;1.40;;;10.60;99.90;;;;;;4873169;29;20540;-84
2021/12/15 11:39:04;;;;;;;1.07;0.50;;;10.80;99.90;;;;;;4871633;29;20262;-83
2021/12/15 11:41:40;;;;;;;0.90;0.83;;;10.80;99.90;;;;;;4871922;29;20233;-83
2021/12/15 11:44:14;;;;;;;2.23;0.83;;;10.60;99.90;;;;;;4872194;29;20290;-83
2021/12/15 11:46:41;;;;;;;1.27;1.07;;;10.80;99.90;;;;;;4872401;29;20193;-84
2021/12/15 11:49:07;;;;;;;4.80;1.80;;;10.80;99.90;;;;;;4871342;29;20217;-84
2021/12/15 11:51:44;;;;;;;1.13;0.60;;;10.90;99.90;;;;;;4872349;29;20207;-83
2021/12/15 11:54:23;;;;;;;1.47;1.37;;;10.90;99.90;;;;;;4872266;29;20191;-84
2021/12/15 11:56:50;;;;;;;0.57;0.57;;;10.90;99.90;;;;;;4871938;29;20725;-83
2021/12/15 11:59:49;;;;;;;1.40;0.80;;;10.90;99.90;;;;;;4872084;29;20245;-84
2021/12/15 12:02:41;;;;;;;2.33;1.63;;;11.00;99.90;;;;;;4870404;29;20272;-83
2021/12/15 12:05:11;;;;;;;2.77;0.87;;;10.90;99.90;;;;;;4871849;29;20182;-84
2021/12/15 12:07:47;;;;;;;0.67;0.67;;;10.90;99.90;;;;;;4876161;29;20190;-83
2021/12/15 12:10:31;;;;;;;0.57;0.57;;;10.90;99.90;;;;;;4871884;29;20907;-86
2021/12/15 12:13:07;;;;;;;1.97;1.00;;;10.90;99.90;;;;;;4874512;29;20681;-84
2021/12/15 12:15:37;;;;;;;2.63;1.50;;;10.70;99.90;;;;;;4871768;29;20232;-84
2021/12/15 12:18:09;;;;;;;1.33;1.23;;;10.80;99.90;;;;;;4871608;29;20187;-85
2021/12/15 12:20:43;;;;;;;0.53;0.53;;;10.80;99.90;;;;;;4872218;29;20199;-84
2021/12/15 12:23:12;;;;;;;1.03;0.90;;;10.70;99.90;;;;;;4872055;29;20191;-84
2021/12/15 12:25:46;;;;;;;1.67;1.00;;;10.70;99.90;;;;;;4871610;29;20194;-85
2021/12/15 12:28:16;;;;;;;2.03;0.80;;;10.80;99.90;;;;;;4871388;29;20568;-85
2021/12/15 12:30:45;;;;;;;1.10;0.37;;;10.80;99.90;;;;;;4871133;29;20225;-84
2021/12/15 12:33:12;;;;;;;0.90;0.90;;;10.80;99.90;;;;;;4872920;29;20696;-84
2021/12/15 12:35:42;;;;;;;7.33;1.30;;;10.80;99.90;;;;;;4869599;29;20200;-84
2021/12/15 12:38:26;;;;;;;0.73;0.40;;;10.90;99.90;;;;;;4870865;29;20188;-84
2021/12/15 12:41:14;;;;;;;1.17;0.47;;;10.90;99.90;;;;;;4871225;29;20278;-84
2021/12/15 12:43:48;;;;;;;0.87;0.87;;;10.90;99.90;;;;;;4871493;29;20598;-84
2021/12/15 12:46:24;;;;;;;1.53;0.53;;;10.90;99.90;;;;;;4871291;29;20201;-84
2021/12/15 12:49:18;;;;;;;0.80;0.80;;;11.00;99.90;;;;;;4870805;29;20218;-84
2021/12/15 13:00:25;;;;;;;0.70;0.70;;;10.40;99.90;;;;;;4871706;29;20268;-84
2021/12/15 13:03:19;;;;;;;0.53;0.53;;;10.60;99.90;;;;;;4878054;29;20191;-84
2021/12/15 13:05:49;;;;;;;0.60;0.60;;;10.70;99.90;;;;;;4871145;29;20190;-84
2021/12/15 13:08:29;;;;;;;1.63;1.17;;;10.70;99.90;;;;;;4870673;29;20187;-83
2021/12/15 13:11:01;;;;;;;0.63;0.63;;;10.80;99.90;;;;;;4870796;29;20640;-84
2021/12/15 13:13:37;;;;;;;0.60;0.50;;;10.80;99.90;;;;;;4871889;29;20557;-83
2021/12/15 13:16:09;;;;;;;0.70;0.70;;;10.50;99.90;;;;;;4876115;29;20183;-86
2021/12/15 13:18:54;;;;;;;1.80;1.27;;;10.40;99.90;;;;;;4872557;29;20276;-83
2021/12/15 13:21:23;;;;;;;1.30;1.23;;;10.00;99.90;;;;;;4875296;29;20197;-84
2021/12/15 13:23:56;;;;;;;0.57;0.57;;;10.20;99.90;;;;;;4875618;29;20189;-84
2021/12/15 13:29:49;;;;;;;1.13;0.83;;;10.40;99.90;;;;;;4876868;29;20227;-83
2021/12/15 13:32:16;;;;;;;0.53;0.53;;;10.50;99.90;;;;;;4867742;29;20688;-84
2021/12/15 13:34:49;;;;;;;0.60;0.50;;;10.50;99.90;;;;;;4874106;29;20624;-83
2021/12/15 13:37:51;;;;;;;1.47;1.37;;;10.40;99.90;;;;;;4874817;29;20221;-84
2021/12/15 13:41:09;;;;;;;1.40;1.00;;;10.50;99.90;;;;;;4850087;29;20239;-84
2021/12/15 13:43:42;;;;;;;0.50;0.50;;;10.50;99.90;;;;;;4847683;29;20211;-84
2021/12/15 13:46:42;;;;;;;0.43;0.43;;;10.70;99.90;;;;;;4875439;29;20187;-83
2021/12/15 13:49:17;;;;;;;0.60;0.60;;;10.60;99.90;;;;;;4875101;29;20288;-83
2021/12/15 13:52:01;;;;;;;1.40;0.93;;;10.70;99.90;;;;;;4876601;29;20191;-83
2021/12/15 13:54:33;;;;;;;1.57;1.43;;;10.80;99.90;;;;;;4878730;29;20199;-81
2021/12/15 13:57:14;;;;;;;1.27;1.00;;;10.70;99.90;;;;;;4879870;29;20254;-82
2021/12/15 14:00:06;;;;;;;1.97;1.03;;;10.70;99.90;;;;;;4878933;29;20228;-82
2021/12/15 14:02:50;;;;;;;0.47;0.47;;;10.70;99.90;;;;;;4856834;29;20246;-82
2021/12/15 14:05:16;;;;;;;0.43;0.43;;;10.20;99.90;;;;;;4878094;29;20196;-82
2021/12/15 14:07:52;;;;;;;4.40;0.80;;;10.10;99.90;;;;;;4878362;29;20195;-81
2021/12/15 14:10:18;;;;;;;2.07;1.00;;;10.20;99.90;;;;;;4892872;29;20232;-81
2021/12/15 14:12:47;;;;;;;1.63;1.13;;;10.40;99.90;;;;;;4879796;29;20232;-81
2021/12/15 14:15:38;;;;;;;1.23;1.13;;;10.30;99.90;;;;;;4874954;29;20600;-82
2021/12/15 14:18:27;;;;;;;1.03;0.80;;;9.80;99.90;;;;;;4874757;29;20198;-82
2021/12/15 14:21:09;;;;;;;1.40;0.60;;;9.80;99.90;;;;;;4880189;29;20226;-82
2021/12/15 14:23:41;;;;;;;1.30;1.03;;;10.00;99.90;;;;;;4879555;29;20188;-81
2021/12/15 14:26:13;;;;;;;0.93;0.93;;;10.00;99.90;;;;;;4877733;29;20176;-82
2021/12/15 14:28:46;;;;;;;1.23;1.03;;;9.80;99.90;;;;;;4878600;29;20221;-82
2021/12/15 14:31:25;;;;;;;1.67;1.47;;;9.90;99.90;;;;;;4879375;29;20582;-82
2021/12/15 14:33:54;;;;;;;1.63;1.50;;;9.80;99.90;;;;;;4878301;29;20285;-82
2021/12/15 14:36:29;;;;;;;1.33;0.77;;;9.80;99.90;;;;;;4879030;29;20206;-82